Time;durP1;ratioP1;P1;durP2;ratioP2;P2;SDS_P1;SDS_P2;PMS_P1;PMS_P2;Temp;Humidity;BMP_temperature;BMP_pressure;BME280_temperature;BME280_humidity;BME280_pressure;Samples;Min_cycle;Max_cycle;Signal;HPM_P1;HPM_P2
2022/04/06 00:00:42;;;;;;;7.43;2.03;;;;;;;12.19;54.83;98036.94;4423628;32;20085;-87
2022/04/06 00:03:08;;;;;;;6.65;2.00;;;;;;;12.14;54.67;98041.69;4437395;32;20105;-87
2022/04/06 00:05:33;;;;;;;6.12;2.08;;;;;;;12.03;54.88;98042.47;4422864;32;20106;-88
2022/04/06 00:07:59;;;;;;;5.93;1.80;;;;;;;11.95;55.17;98042.19;4437620;32;20163;-91
2022/04/06 00:10:24;;;;;;;6.35;1.90;;;;;;;12.05;54.80;98042.34;4436821;32;20158;-87
2022/04/06 00:12:50;;;;;;;6.28;2.22;;;;;;;12.07;54.56;98038.66;4435770;32;20457;-88
2022/04/06 00:15:15;;;;;;;6.93;2.40;;;;;;;11.77;55.38;98042.50;4438434;32;20085;-91
2022/04/06 00:17:41;;;;;;;9.05;2.60;;;;;;;12.03;54.61;98049.53;4425333;32;20127;-90
2022/04/06 00:20:07;;;;;;;7.72;2.42;;;;;;;11.95;54.80;98048.28;4439589;32;20081;-89
2022/04/06 00:22:33;;;;;;;6.62;1.95;;;;;;;12.05;54.67;98045.00;4425373;32;20136;-91
2022/04/06 00:24:59;;;;;;;6.97;2.20;;;;;;;12.03;54.76;98045.09;4438357;32;20155;-92
2022/04/06 00:27:24;;;;;;;6.00;2.00;;;;;;;11.99;55.11;98043.63;4440488;32;20085;-94
2022/04/06 00:29:50;;;;;;;5.25;2.00;;;;;;;11.90;55.45;98042.53;4441772;32;20082;-88
2022/04/06 00:32:16;;;;;;;8.30;2.20;;;;;;;11.91;55.37;98038.06;4441260;32;20101;-90
2022/04/06 00:37:25;;;;;;;5.72;1.83;;;;;;;12.02;55.01;98042.59;4438911;32;20168;-88
2022/04/06 00:39:51;;;;;;;5.30;1.70;;;;;;;11.94;55.36;98038.69;4440560;32;20085;-88
2022/04/06 00:42:17;;;;;;;6.70;1.80;;;;;;;11.94;55.59;98043.16;4440612;32;20165;-89
2022/04/06 00:44:43;;;;;;;5.87;1.60;;;;;;;11.87;55.76;98045.34;4440905;32;20090;-89
2022/04/06 00:47:08;;;;;;;5.78;1.67;;;;;;;11.91;55.68;98049.47;4440687;32;20085;-89
2022/04/06 00:49:34;;;;;;;3.80;1.25;;;;;;;11.77;56.32;98046.94;4440166;32;20093;-89
2022/04/06 00:52:05;;;;;;;3.97;1.25;;;;;;;11.88;56.02;98054.09;4437271;32;20165;-90
2022/04/06 00:54:31;;;;;;;2.85;1.30;;;;;;;11.97;55.76;98050.81;4411473;32;20172;-89
2022/04/06 00:56:57;;;;;;;5.22;1.55;;;;;;;12.03;55.53;98049.53;4425405;32;20086;-88
2022/04/06 00:59:26;;;;;;;4.70;1.50;;;;;;;11.97;55.51;98049.03;4411383;32;20092;-89
2022/04/06 01:01:52;;;;;;;6.37;2.00;;;;;;;12.04;55.35;98045.97;4425439;32;20120;-88
2022/04/06 01:04:18;;;;;;;4.00;1.60;;;;;;;11.88;55.41;98051.44;4425245;32;20101;-88
2022/04/06 01:06:44;;;;;;;4.18;1.60;;;;;;;11.90;55.12;98046.94;4425252;32;20097;-89
2022/04/06 01:09:10;;;;;;;6.35;2.00;;;;;;;11.87;55.04;98055.91;4425360;32;20108;-89
2022/04/06 01:11:36;;;;;;;6.55;2.00;;;;;;;11.85;55.12;98054.31;4425394;32;20098;-90
2022/04/06 01:14:02;;;;;;;5.68;1.83;;;;;;;11.84;55.43;98053.50;4425259;32;20373;-88
2022/04/06 01:16:28;;;;;;;6.30;1.70;;;;;;;11.84;55.46;98050.84;4411438;32;20438;-88
2022/04/06 01:18:53;;;;;;;4.72;1.65;;;;;;;11.93;55.31;98050.19;4425747;32;20147;-88
2022/04/06 01:21:20;;;;;;;8.05;2.47;;;;;;;12.00;55.01;98047.97;4437563;32;20392;-88
2022/04/06 01:23:46;;;;;;;7.65;2.30;;;;;;;11.85;54.96;98044.59;4440448;32;20153;-89
2022/04/06 01:26:11;;;;;;;7.62;2.78;;;;;;;11.89;54.94;98054.00;4426361;32;20448;-88
2022/04/06 01:28:38;;;;;;;8.27;2.47;;;;;;;11.90;54.98;98053.06;4426481;32;20111;-89
2022/04/06 01:31:04;;;;;;;6.07;2.00;;;;;;;11.94;55.04;98054.53;4426751;32;20499;-87
2022/04/06 01:33:30;;;;;;;5.47;1.80;;;;;;;11.92;55.13;98048.53;4440541;32;20098;-88
2022/04/06 01:35:56;;;;;;;5.60;2.00;;;;;;;11.97;55.10;98054.31;4440606;32;20146;-87
2022/04/06 01:38:22;;;;;;;6.25;2.00;;;;;;;11.94;55.27;98053.69;4440580;32;20508;-87
2022/04/06 01:40:48;;;;;;;5.75;1.80;;;;;;;12.00;55.15;98054.09;4440465;32;20151;-88
2022/04/06 01:43:13;;;;;;;6.45;2.30;;;;;;;12.07;54.99;98053.66;4440216;32;20119;-88
2022/04/06 01:45:38;;;;;;;7.30;1.98;;;;;;;12.17;54.56;98047.59;4439948;32;20107;-88
2022/04/06 01:48:04;;;;;;;7.05;2.37;;;;;;;12.27;54.29;98044.28;4421989;32;20077;-89
2022/04/06 01:53:14;;;;;;;9.93;3.47;;;;;;;12.19;54.10;98045.69;4413212;32;20151;-88
2022/04/06 01:55:39;;;;;;;10.68;3.50;;;;;;;12.13;53.77;98051.41;4424792;32;20446;-90
2022/04/06 01:58:05;;;;;;;10.35;3.80;;;;;;;12.10;53.63;98049.00;4424896;32;20111;-90
2022/04/06 02:00:30;;;;;;;9.45;3.75;;;;;;;12.00;53.78;98045.34;4410985;32;20124;-88
2022/04/06 02:02:55;;;;;;;10.30;3.80;;;;;;;11.93;54.01;98037.00;4424904;32;20085;-89
2022/04/06 02:05:22;;;;;;;10.38;3.55;;;;;;;11.91;54.24;98036.28;4424812;32;20078;-87
2022/04/06 02:07:48;;;;;;;9.57;3.70;;;;;;;11.89;54.40;98038.19;4436911;32;20093;-87
2022/04/06 02:10:14;;;;;;;10.10;3.35;;;;;;;11.88;54.44;98036.47;4439815;32;20101;-88
2022/04/06 02:12:40;;;;;;;9.20;3.08;;;;;;;11.90;54.52;98041.66;4438765;32;20463;-88
2022/04/06 02:15:10;;;;;;;9.48;2.90;;;;;;;11.93;54.56;98039.63;4440274;32;20551;-90
2022/04/06 02:17:36;;;;;;;8.98;3.00;;;;;;;11.94;54.57;98037.88;4439950;32;20475;-89
2022/04/06 02:20:02;;;;;;;8.73;3.05;;;;;;;11.93;54.56;98039.63;4440254;32;20120;-89
2022/04/06 02:22:28;;;;;;;9.15;3.00;;;;;;;11.96;54.55;98038.59;4440196;32;20089;-90
2022/04/06 02:24:53;;;;;;;10.07;3.72;;;;;;;11.93;54.50;98031.72;4440266;32;20127;-89
2022/04/06 02:27:19;;;;;;;8.18;3.05;;;;;;;11.90;54.56;98028.47;4440196;32;20394;-88
2022/04/06 02:29:45;;;;;;;10.88;3.28;;;;;;;11.86;54.65;98026.97;4440172;32;20096;-90
2022/04/06 02:32:10;;;;;;;9.73;3.45;;;;;;;11.79;54.74;98029.22;4429695;32;20116;-89
2022/04/06 02:34:36;;;;;;;8.60;3.37;;;;;;;11.79;54.73;98022.13;4411188;32;20445;-89
2022/04/06 02:37:02;;;;;;;9.98;3.70;;;;;;;11.78;54.82;98032.78;4424793;32;20125;-90
2022/04/06 02:39:28;;;;;;;10.35;3.62;;;;;;;11.69;55.00;98028.19;4424751;32;20120;-89
2022/04/06 02:41:53;;;;;;;10.00;3.92;;;;;;;11.68;55.09;98031.78;4424725;32;20408;-88
2022/04/06 02:44:19;;;;;;;10.68;3.87;;;;;;;11.64;55.07;98033.78;4424678;32;20138;-89
2022/04/06 02:46:46;;;;;;;10.27;3.62;;;;;;;11.64;55.12;98036.41;4424536;32;20412;-88
2022/04/06 02:49:12;;;;;;;9.75;3.78;;;;;;;11.56;55.28;98030.84;4424684;32;20105;-88
2022/04/06 02:51:37;;;;;;;10.13;3.72;;;;;;;11.57;55.32;98036.03;4410599;32;20098;-87
2022/04/06 02:54:03;;;;;;;9.77;3.45;;;;;;;11.57;55.42;98033.38;4432604;32;20093;-86
2022/04/06 02:56:29;;;;;;;9.30;3.15;;;;;;;11.53;55.58;98042.47;4425980;32;20081;-87
2022/04/06 02:58:54;;;;;;;9.70;3.12;;;;;;;11.57;55.50;98033.38;4440213;32;20089;-88
2022/04/06 03:01:21;;;;;;;8.80;2.92;;;;;;;11.51;55.74;98048.78;4440096;32;20098;-86
2022/04/06 03:03:46;;;;;;;9.00;2.67;;;;;;;11.59;55.57;98042.03;4439532;32;20101;-87
2022/04/06 03:06:12;;;;;;;8.98;2.78;;;;;;;11.58;55.59;98048.25;4439690;32;20425;-88
2022/04/06 03:08:37;;;;;;;8.80;2.72;;;;;;;11.53;55.74;98047.75;4439676;32;20117;-89
2022/04/06 03:11:03;;;;;;;9.90;2.92;;;;;;;11.56;55.64;98054.59;4439866;32;20155;-89
2022/04/06 03:13:28;;;;;;;9.30;2.65;;;;;;;11.49;55.98;98048.06;4425430;32;20131;-89
2022/04/06 03:15:53;;;;;;;7.93;2.35;;;;;;;11.48;56.03;98049.03;4439588;32;20105;-89
2022/04/06 03:18:20;;;;;;;8.18;2.83;;;;;;;11.61;55.69;98053.31;4434785;32;20097;-89
2022/04/06 03:20:45;;;;;;;8.00;2.50;;;;;;;11.60;55.65;98054.25;4424244;32;20453;-89
2022/04/06 03:23:11;;;;;;;8.07;2.72;;;;;;;11.51;55.77;98054.94;4410365;32;20103;-90
2022/04/06 03:25:36;;;;;;;8.13;2.62;;;;;;;11.56;55.82;98065.16;4424073;32;20133;-89
2022/04/06 03:28:02;;;;;;;7.75;2.42;;;;;;;11.64;55.51;98056.69;4410347;32;20101;-88
2022/04/06 03:30:27;;;;;;;8.73;2.55;;;;;;;11.68;55.29;98058.16;4424319;32;20231;-89
2022/04/06 03:32:53;;;;;;;7.43;2.80;;;;;;;11.68;55.22;98053.72;4410296;32;20164;-87
2022/04/06 03:35:18;;;;;;;8.65;2.92;;;;;;;11.60;55.34;98046.34;4424294;32;20136;-87
2022/04/06 03:37:44;;;;;;;9.30;2.70;;;;;;;11.58;55.29;98048.25;4410042;32;20141;-86
2022/04/06 03:40:10;;;;;;;9.73;3.17;;;;;;;11.55;55.33;98045.84;4424101;32;20446;-86
2022/04/06 03:42:35;;;;;;;8.45;2.83;;;;;;;11.52;55.40;98053.12;4424136;32;20375;-87
2022/04/06 03:45:02;;;;;;;9.48;3.20;;;;;;;11.46;55.57;98048.28;4425542;32;20107;-87
2022/04/06 03:47:29;;;;;;;9.15;3.45;;;;;;;11.47;55.67;98049.94;4426597;32;20159;-87
2022/04/06 03:49:55;;;;;;;9.15;2.87;;;;;;;11.45;55.77;98039.50;4441216;32;20154;-87
2022/04/06 03:52:20;;;;;;;8.43;2.58;;;;;;;11.42;55.99;98047.66;4441085;32;20412;-87
2022/04/06 03:54:46;;;;;;;8.85;2.80;;;;;;;11.25;56.37;98050.63;4426975;32;20410;-89
2022/04/06 03:57:12;;;;;;;11.80;3.10;;;;;;;11.39;55.85;98048.69;4430707;32;20085;-90
2022/04/06 03:59:38;;;;;;;11.55;3.05;;;;;;;11.32;55.98;98050.09;4411561;32;20124;-89
2022/04/06 04:02:04;;;;;;;9.45;3.00;;;;;;;11.40;55.69;98058.31;4425323;32;20437;-90
2022/04/06 04:04:29;;;;;;;9.57;3.15;;;;;;;11.39;55.70;98059.25;4425603;32;20085;-90
2022/04/06 04:06:55;;;;;;;10.25;3.25;;;;;;;11.28;56.14;98058.28;4425490;32;20507;-92
2022/04/06 04:09:21;;;;;;;7.68;2.85;;;;;;;11.38;55.96;98054.94;4425740;32;20101;-91
2022/04/06 04:11:46;;;;;;;9.73;3.12;;;;;;;11.39;56.00;98061.88;4425512;32;20112;-92
2022/04/06 04:14:11;;;;;;;10.40;2.90;;;;;;;11.43;55.95;98057.22;4427922;32;20137;-93
2022/04/06 04:16:37;;;;;;;8.43;2.75;;;;;;;11.47;55.61;98055.22;4440914;32;20078;-92
2022/04/06 04:19:02;;;;;;;8.80;2.70;;;;;;;11.49;55.58;98056.84;4440366;32;20171;-90
2022/04/06 04:21:34;;;;;;;7.87;2.62;;;;;;;11.53;55.41;98062.72;4440686;32;20440;-92
2022/04/06 04:24:01;;;;;;;8.32;2.60;;;;;;;11.68;55.03;98056.34;4440940;32;20077;-91
2022/04/06 04:26:26;;;;;;;7.93;2.30;;;;;;;11.67;54.81;98067.88;4440894;32;20120;-92
2022/04/06 04:28:52;;;;;;;7.75;2.10;;;;;;;11.82;54.16;98055.41;4440814;32;20449;-92
2022/04/06 04:31:17;;;;;;;5.28;1.70;;;;;;;11.92;53.70;98053.81;4426861;32;20464;-88
2022/04/06 04:33:43;;;;;;;6.37;1.85;;;;;;;12.05;53.08;98060.84;4440543;32;20125;-88
2022/04/06 04:36:09;;;;;;;5.60;1.80;;;;;;;12.23;52.80;98054.22;4427060;32;20099;-89
2022/04/06 04:38:36;;;;;;;4.87;1.65;;;;;;;12.35;52.00;98061.25;4440845;32;20151;-89
2022/04/06 04:41:02;;;;;;;5.50;1.50;;;;;;;12.51;51.63;98046.91;4426960;32;20086;-89
2022/04/06 04:43:28;;;;;;;3.60;1.17;;;;;;;12.66;51.26;98056.31;4440546;32;20081;-89
2022/04/06 04:45:54;;;;;;;3.83;1.35;;;;;;;12.64;51.14;98054.78;4440433;32;20098;-90
2022/04/06 04:48:19;;;;;;;4.80;1.50;;;;;;;12.77;50.88;98056.38;4440226;32;20202;-89
2022/04/06 04:50:44;;;;;;;6.85;1.67;;;;;;;12.88;50.93;98062.63;4440504;32;20097;-88
2022/04/06 04:53:10;;;;;;;6.65;1.65;;;;;;;12.98;50.51;98055.72;4426627;32;20090;-88
2022/04/06 04:55:35;;;;;;;4.72;1.45;;;;;;;13.11;49.93;98059.06;4425675;32;20369;-89
2022/04/06 04:58:01;;;;;;;5.60;1.70;;;;;;;13.18;49.30;98064.75;4426661;32;20097;-86
2022/04/06 05:00:26;;;;;;;7.75;2.33;;;;;;;13.24;48.72;98066.09;4440626;32;20107;-89
2022/04/06 05:02:51;;;;;;;6.78;2.30;;;;;;;13.25;47.93;98070.41;4440534;32;20100;-87
2022/04/06 05:05:17;;;;;;;8.23;2.25;;;;;;;13.36;47.26;98073.09;4440653;32;20144;-88
2022/04/06 05:07:42;;;;;;;8.48;2.05;;;;;;;13.39;46.95;98067.59;4440442;32;20128;-87
2022/04/06 05:10:09;;;;;;;8.35;2.50;;;;;;;13.50;46.26;98074.66;4440569;32;20135;-88
2022/04/06 05:12:34;;;;;;;8.32;2.40;;;;;;;13.60;45.93;98077.44;4426885;32;20120;-89
2022/04/06 05:15:00;;;;;;;6.57;2.12;;;;;;;13.59;46.19;98073.13;4440707;32;20090;-85
2022/04/06 05:17:26;;;;;;;7.50;2.25;;;;;;;13.69;45.89;98082.84;4434758;32;20094;-91
2022/04/06 05:19:53;;;;;;;6.95;2.20;;;;;;;13.70;45.83;98087.19;4424985;32;20128;-90
2022/04/06 05:22:18;;;;;;;8.38;2.12;;;;;;;13.75;45.50;98081.53;4425110;32;20081;-86
2022/04/06 05:24:43;;;;;;;6.70;1.95;;;;;;;13.86;45.39;98089.47;4425174;32;20152;-88
2022/04/06 05:27:09;;;;;;;8.35;2.15;;;;;;;13.94;45.14;98092.34;4424921;32;20189;-87
2022/04/06 05:29:34;;;;;;;7.30;2.35;;;;;;;13.92;45.04;98088.97;4424909;32;20094;-86
2022/04/06 05:32:00;;;;;;;6.97;2.17;;;;;;;14.02;45.12;98085.59;4425028;32;20089;-87
2022/04/06 05:34:26;;;;;;;7.35;2.35;;;;;;;14.12;44.61;98092.69;4425007;32;20480;-89
2022/04/06 05:36:51;;;;;;;8.77;2.60;;;;;;;14.14;44.56;98089.94;4424964;32;20124;-87
2022/04/06 05:39:17;;;;;;;7.55;2.33;;;;;;;14.36;44.13;98094.31;4411066;32;20491;-86
2022/04/06 05:41:42;;;;;;;8.30;2.72;;;;;;;14.47;43.89;98096.13;4426506;32;20410;-87
2022/04/06 05:44:08;;;;;;;7.90;2.40;;;;;;;14.59;43.60;98095.13;4440255;32;20105;-87
2022/04/06 05:46:33;;;;;;;9.70;2.70;;;;;;;14.78;42.90;98098.94;4439978;32;20097;-87
2022/04/06 05:48:58;;;;;;;9.02;2.30;;;;;;;14.80;42.42;98097.81;4440339;32;20137;-87
2022/04/06 05:51:24;;;;;;;9.75;2.95;;;;;;;14.99;42.14;98102.44;4439849;32;20467;-86
2022/04/06 05:53:49;;;;;;;8.85;2.60;;;;;;;15.04;41.42;98110.00;4440173;32;20102;-89
2022/04/06 05:56:15;;;;;;;9.57;2.55;;;;;;;15.06;41.46;98102.75;4440104;32;20089;-87
2022/04/06 05:58:42;;;;;;;7.70;2.30;;;;;;;15.16;41.09;98103.66;4440304;32;20114;-87
2022/04/06 06:01:08;;;;;;;7.80;2.35;;;;;;;15.31;40.77;98105.00;4431961;32;20147;-87
2022/04/06 06:03:33;;;;;;;8.95;2.58;;;;;;;15.48;40.75;98103.56;4421996;32;112410;-87
2022/04/06 06:05:59;;;;;;;7.37;2.40;;;;;;;15.53;41.32;98105.84;4411820;32;20434;-86
2022/04/06 06:08:24;;;;;;;9.32;2.60;;;;;;;15.60;41.80;98106.16;4424780;32;20120;-87
2022/04/06 06:10:50;;;;;;;12.98;3.45;;;;;;;15.71;41.39;98103.41;4410830;32;20362;-88
2022/04/06 06:13:15;;;;;;;8.25;2.30;;;;;;;15.86;41.34;98112.72;4424614;32;20145;-88
2022/04/06 06:15:41;;;;;;;8.98;2.60;;;;;;;15.94;40.52;98109.41;4424669;32;20339;-86
2022/04/06 06:18:08;;;;;;;9.27;2.58;;;;;;;16.09;41.12;98107.22;4424549;32;20119;-87
2022/04/06 06:20:34;;;;;;;7.30;2.33;;;;;;;16.07;40.62;98103.84;4424741;32;20149;-87
2022/04/06 06:22:59;;;;;;;7.75;2.40;;;;;;;16.12;39.96;98104.28;4424622;32;20453;-87
2022/04/06 06:25:24;;;;;;;8.90;2.35;;;;;;;16.14;39.22;98112.97;4424698;32;20152;-87
2022/04/06 06:27:50;;;;;;;8.77;2.40;;;;;;;16.22;39.64;98107.81;4410385;32;20154;-88
2022/04/06 06:30:15;;;;;;;9.18;2.20;;;;;;;16.29;38.88;98103.63;4433332;32;20503;-89
2022/04/06 06:32:41;;;;;;;7.53;1.90;;;;;;;16.32;39.20;98113.13;4440156;32;20105;-89
2022/04/06 06:35:11;;;;;;;7.82;2.45;;;;;;;16.53;38.67;98105.06;4440127;32;20123;-89
2022/04/06 06:37:37;;;;;;;8.27;2.47;;;;;;;16.54;38.37;98106.75;4440007;32;20163;-89
2022/04/06 06:40:04;;;;;;;8.15;2.10;;;;;;;16.47;38.17;98108.28;4426202;32;20124;-89
2022/04/06 06:42:29;;;;;;;9.82;2.58;;;;;;;16.37;38.32;98112.75;4440072;32;20117;-88
2022/04/06 06:44:55;;;;;;;7.60;2.10;;;;;;;16.40;39.09;98120.44;4439820;32;20093;-86
2022/04/06 06:47:20;;;;;;;11.07;2.33;;;;;;;16.44;38.75;98111.22;4440058;32;20077;-88
2022/04/06 06:49:46;;;;;;;9.48;2.30;;;;;;;16.31;39.18;98114.97;4440023;32;20081;-89
2022/04/06 06:52:15;;;;;;;8.48;2.50;;;;;;;16.20;39.44;98115.06;4439953;32;20089;-88
2022/04/06 06:54:40;;;;;;;8.00;2.20;;;;;;;16.19;38.80;98110.75;4440261;32;20415;-88
2022/04/06 06:57:06;;;;;;;9.70;2.53;;;;;;;16.27;39.10;98108.25;4440142;32;20152;-87
2022/04/06 06:59:31;;;;;;;12.37;3.10;;;;;;;16.27;39.06;98107.41;4419515;32;20463;-89
2022/04/06 07:01:57;;;;;;;10.35;3.10;;;;;;;16.37;38.73;98110.91;4424258;32;20361;-88
2022/04/06 07:04:22;;;;;;;9.60;3.33;;;;;;;16.34;39.11;98113.88;4410391;32;20102;-89
2022/04/06 07:06:49;;;;;;;10.63;3.35;;;;;;;16.42;39.27;98108.69;4410348;32;20093;-88
2022/04/06 07:09:15;;;;;;;16.52;7.12;;;;;;;16.51;39.24;98099.91;4410023;32;20081;-88
2022/04/06 07:11:41;;;;;;;14.15;6.60;;;;;;;16.64;38.71;98098.78;4424129;32;20123;-89
2022/04/06 07:14:06;;;;;;;18.33;8.52;;;;;;;16.66;38.80;98102.16;4424186;32;20414;-89
2022/04/06 07:16:31;;;;;;;18.35;8.43;;;;;;;16.70;38.83;98106.19;4424193;32;20082;-90
2022/04/06 07:18:57;;;;;;;17.75;8.77;;;;;;;16.84;38.48;98103.19;4430253;32;20134;-88
2022/04/06 07:21:22;;;;;;;18.87;9.88;;;;;;;16.87;38.47;98113.53;4439379;32;20123;-88
2022/04/06 07:23:48;;;;;;;20.15;9.93;;;;;;;16.87;38.47;98107.38;4439657;32;20107;-87
2022/04/06 07:26:16;;;;;;;20.50;9.82;;;;;;;16.98;38.28;98123.19;4439523;32;20119;-90
2022/04/06 07:28:45;;;;;;;20.73;9.68;;;;;;;17.07;37.98;98124.16;4439322;32;20094;-88
2022/04/06 07:31:11;;;;;;;20.50;9.13;;;;;;;17.15;38.07;98118.97;4439627;32;20113;-89
2022/04/06 07:33:37;;;;;;;21.50;10.00;;;;;;;17.17;38.26;98121.47;4439384;32;20101;-88
2022/04/06 07:36:13;;;;;;;19.55;8.93;;;;;;;17.14;38.48;98127.94;4436895;32;20094;-87
2022/04/06 07:38:39;;;;;;;16.50;7.37;;;;;;;17.19;38.97;98124.84;4437523;32;20076;-87
2022/04/06 07:41:05;;;;;;;17.00;8.15;;;;;;;17.31;38.24;98123.72;4437276;32;20467;-89
2022/04/06 07:43:30;;;;;;;18.62;7.50;;;;;;;17.34;38.49;98126.06;4424522;32;20109;-89
2022/04/06 07:45:55;;;;;;;17.52;7.82;;;;;;;17.34;38.21;98130.56;4438150;32;20144;-87
2022/04/06 07:48:22;;;;;;;23.30;8.30;;;;;;;17.49;38.32;98126.47;4437401;32;20400;-88
2022/04/06 07:50:48;;;;;;;18.65;8.27;;;;;;;17.63;38.54;98120.69;4436583;32;20459;-87
2022/04/06 07:53:13;;;;;;;19.15;7.95;;;;;;;17.73;38.16;98119.81;4424482;32;20127;-88
2022/04/06 07:55:39;;;;;;;20.83;8.70;;;;;;;17.74;38.23;98125.00;4437760;32;20115;-86
2022/04/06 07:58:04;;;;;;;18.20;8.52;;;;;;;17.77;38.51;98121.19;4411586;32;20110;-85
2022/04/06 08:00:33;;;;;;;16.62;7.62;;;;;;;17.85;38.65;98122.19;4438791;32;20388;-87
2022/04/06 08:02:58;;;;;;;16.35;7.25;;;;;;;17.83;38.03;98131.31;4438703;32;20104;-87
2022/04/06 08:05:24;;;;;;;14.10;5.85;;;;;;;17.96;37.70;98128.31;4437995;32;20483;-86
2022/04/06 08:07:50;;;;;;;15.55;6.22;;;;;;;18.00;37.57;98129.69;4438249;32;20120;-90
2022/04/06 08:10:17;;;;;;;13.57;5.93;;;;;;;18.07;37.41;98125.47;4438940;32;20106;-89
2022/04/06 08:12:43;;;;;;;15.00;6.12;;;;;;;18.00;37.26;98127.03;4436753;32;20105;-88
2022/04/06 08:15:09;;;;;;;15.30;6.20;;;;;;;18.08;36.80;98127.16;4424407;32;20143;-89
2022/04/06 08:17:39;;;;;;;14.25;6.20;;;;;;;18.06;36.66;98118.47;4437069;32;20090;-91
2022/04/06 08:20:08;;;;;;;13.40;5.82;;;;;;;18.05;37.25;98120.28;4424825;32;20433;-89
2022/04/06 08:22:34;;;;;;;13.98;5.87;;;;;;;17.96;37.09;98131.81;4438239;32;20480;-90
2022/04/06 08:24:59;;;;;;;16.40;6.12;;;;;;;18.05;37.66;98130.94;4437276;32;20081;-89
2022/04/06 08:27:25;;;;;;;14.23;5.95;;;;;;;18.11;37.57;98123.34;4437096;32;20353;-91
2022/04/06 08:29:50;;;;;;;14.23;6.10;;;;;;;18.15;37.93;98116.75;4437655;32;20101;-90
2022/04/06 08:32:15;;;;;;;17.95;6.68;;;;;;;18.10;38.05;98127.84;4439681;32;20119;-89
2022/04/06 08:34:41;;;;;;;15.38;6.40;;;;;;;18.19;38.25;98123.44;4440240;32;20145;-92
2022/04/06 08:37:08;;;;;;;14.50;6.20;;;;;;;18.13;38.28;98122.22;4440111;32;20099;-88
2022/04/06 08:39:33;;;;;;;12.70;5.57;;;;;;;18.16;38.06;98124.59;4440370;32;20400;-89
2022/04/06 08:42:00;;;;;;;14.27;5.80;;;;;;;18.19;38.26;98129.59;4438893;32;20105;-92
2022/04/06 08:44:26;;;;;;;12.40;5.20;;;;;;;18.22;38.26;98126.66;4435288;32;20395;-92
2022/04/06 08:46:52;;;;;;;12.95;5.37;;;;;;;18.37;37.99;98123.47;4424683;32;20136;-89
2022/04/06 08:49:18;;;;;;;13.60;5.20;;;;;;;18.43;37.69;98125.56;4438907;32;20173;-93
2022/04/06 08:51:45;;;;;;;12.50;4.95;;;;;;;18.32;36.93;98123.94;4432040;32;20163;-93
2022/04/06 08:54:11;;;;;;;13.95;5.47;;;;;;;18.37;37.05;98120.81;4425462;32;20226;-93
2022/04/06 08:56:37;;;;;;;12.55;4.57;;;;;;;18.32;37.57;98120.44;4425374;32;20101;-92
2022/04/06 08:59:04;;;;;;;15.00;5.22;;;;;;;18.37;37.19;98132.34;4411615;32;20167;-93
2022/04/06 09:01:33;;;;;;;13.23;4.97;;;;;;;18.41;37.20;98125.72;4425529;32;20097;-93
2022/04/06 09:04:00;;;;;;;15.13;4.93;;;;;;;18.47;37.02;98117.09;4425475;32;20153;-91
2022/04/06 09:06:29;;;;;;;12.63;4.62;;;;;;;18.51;36.80;98117.66;4425416;32;20115;-92
2022/04/06 09:08:54;;;;;;;11.23;4.20;;;;;;;18.57;36.61;98122.38;4425537;32;20106;-90
2022/04/06 09:11:20;;;;;;;13.65;4.12;;;;;;;18.55;35.90;98124.34;4425716;32;20119;-92
2022/04/06 09:13:48;;;;;;;11.10;4.43;;;;;;;18.61;35.88;98122.91;4431314;32;20122;-91
2022/04/06 09:16:17;;;;;;;11.20;4.95;;;;;;;18.52;36.43;98124.66;4439138;32;20144;-89
2022/04/06 09:18:48;;;;;;;11.40;4.30;;;;;;;18.58;36.85;98118.75;4439258;32;20113;-91
2022/04/06 09:21:17;;;;;;;12.27;4.72;;;;;;;18.58;36.87;98116.06;4439499;32;20733;-88
2022/04/06 09:23:48;;;;;;;11.02;4.03;;;;;;;18.59;37.44;98120.41;4439008;32;20152;-87
2022/04/06 09:26:14;;;;;;;11.50;4.55;;;;;;;18.69;36.77;98112.31;4424922;32;20211;-91
2022/04/06 09:28:45;;;;;;;11.18;4.87;;;;;;;18.69;37.11;98122.16;4439131;32;20453;-92
2022/04/06 09:31:18;;;;;;;11.75;4.32;;;;;;;18.72;36.99;98117.38;4438246;32;20101;-93
2022/04/06 09:33:59;;;;;;;11.95;5.12;;;;;;;18.78;37.22;98121.25;4440419;32;20435;-92
2022/04/06 09:36:29;;;;;;;11.12;4.35;;;;;;;18.79;36.77;98109.59;4440367;32;20233;-91
2022/04/06 09:38:54;;;;;;;10.25;4.25;;;;;;;18.88;36.31;98113.22;4426586;32;20723;-91
2022/04/06 09:41:20;;;;;;;11.70;4.70;;;;;;;18.90;36.40;98105.88;4440191;32;20109;-92
2022/04/06 09:43:47;;;;;;;11.23;4.45;;;;;;;18.99;36.21;98100.47;4440343;32;20111;-94
2022/04/06 09:49:11;;;;;;;11.18;5.03;;;;;;;19.06;36.13;98084.66;4440398;32;20543;-92
2022/04/06 09:51:37;;;;;;;11.25;4.80;;;;;;;19.07;35.75;98082.84;4436440;32;20124;-90
2022/04/06 09:54:05;;;;;;;14.35;5.47;;;;;;;19.08;36.07;98082.66;4411125;32;20240;-94
2022/04/06 09:56:32;;;;;;;13.38;5.80;;;;;;;19.20;35.67;98080.59;4424429;32;20186;-93
2022/04/06 09:58:57;;;;;;;11.63;5.03;;;;;;;19.16;35.45;98074.75;4410399;32;20114;-96
2022/04/06 10:01:26;;;;;;;11.75;4.78;;;;;;;19.21;35.41;98077.75;4424147;32;20100;-95
2022/04/06 10:03:55;;;;;;;13.27;6.30;;;;;;;19.31;35.59;98075.00;4414503;32;20161;-89
2022/04/06 10:06:20;;;;;;;11.90;5.60;;;;;;;19.45;35.55;98068.22;4433996;32;20402;-93
2022/04/06 10:08:46;;;;;;;13.00;5.97;;;;;;;19.47;35.31;98068.94;4437534;32;20131;-93
2022/04/06 10:11:12;;;;;;;11.88;5.45;;;;;;;19.52;35.24;98055.09;4425758;32;20144;-93
2022/04/06 10:13:38;;;;;;;12.70;5.28;;;;;;;19.53;35.39;98062.97;4431666;32;20085;-92
2022/04/06 10:16:05;;;;;;;14.13;6.12;;;;;;;19.51;34.78;98061.41;4437617;32;20237;-93
2022/04/06 10:18:32;;;;;;;13.32;5.87;;;;;;;19.48;34.59;98057.25;4435843;32;20658;-89
2022/04/06 10:21:10;;;;;;;12.37;5.10;;;;;;;19.57;35.30;98056.31;4422033;32;20136;-92
2022/04/06 10:23:49;;;;;;;12.57;5.45;;;;;;;19.52;35.24;98055.09;4436879;32;20085;-88
2022/04/06 10:26:43;;;;;;;11.88;5.15;;;;;;;19.65;34.73;98050.16;4437578;32;20362;-89
2022/04/06 10:29:08;;;;;;;13.62;5.80;;;;;;;19.78;34.35;98053.25;4436890;32;20541;-89
2022/04/06 10:31:34;;;;;;;11.75;5.20;;;;;;;19.93;34.06;98041.94;4438017;32;20101;-90
2022/04/06 10:34:19;;;;;;;12.15;5.95;;;;;;;20.02;34.38;98043.66;4438815;32;20120;-93
2022/04/06 10:37:01;;;;;;;11.93;5.90;;;;;;;20.09;34.26;98039.34;4420136;32;20140;-91
2022/04/06 10:39:27;;;;;;;13.35;6.40;;;;;;;20.18;34.36;98037.50;4437786;32;20113;-90
2022/04/06 10:42:16;;;;;;;13.32;5.72;;;;;;;20.25;34.53;98035.88;4439475;32;20119;-90
2022/04/06 10:44:43;;;;;;;12.07;5.70;;;;;;;20.24;34.94;98031.50;4423524;32;20119;-90
2022/04/06 10:47:10;;;;;;;13.85;6.30;;;;;;;20.27;34.44;98030.38;4439410;32;20082;-89
2022/04/06 10:49:36;;;;;;;13.62;6.07;;;;;;;20.27;34.14;98028.53;4424194;32;20097;-90
2022/04/06 10:52:25;;;;;;;15.25;6.45;;;;;;;20.37;34.11;98031.88;4438084;32;20166;-88
2022/04/06 10:54:54;;;;;;;14.63;5.80;;;;;;;20.37;33.92;98017.66;4437882;32;20085;-92
2022/04/06 10:57:20;;;;;;;15.00;6.10;;;;;;;20.33;33.88;98025.19;4435678;32;20151;-89
2022/04/06 11:00:14;;;;;;;14.27;6.40;;;;;;;20.30;33.96;98020.19;4437275;32;20128;-91
2022/04/06 11:02:49;;;;;;;12.35;6.18;;;;;;;20.38;33.99;98017.50;4436257;32;20472;-91
2022/04/06 11:05:43;;;;;;;13.13;5.90;;;;;;;20.36;33.54;98013.34;4436914;32;20089;-90
2022/04/06 11:11:31;;;;;;;13.23;6.03;;;;;;;20.28;32.87;97995.44;4436680;32;20132;-89
2022/04/06 11:13:56;;;;;;;15.82;6.15;;;;;;;20.30;33.29;98003.28;4436997;32;20154;-83
2022/04/06 11:16:42;;;;;;;12.70;5.35;;;;;;;20.38;32.78;97989.94;4421556;32;20113;-83
2022/04/06 11:19:07;;;;;;;12.18;5.20;;;;;;;20.43;32.79;97987.56;4436769;32;20093;-82
2022/04/06 11:21:33;;;;;;;13.70;5.20;;;;;;;20.38;33.58;97987.25;4411224;32;20155;-86
2022/04/06 11:23:58;;;;;;;12.80;5.32;;;;;;;20.46;32.90;97986.44;4437973;32;20451;-85
2022/04/06 11:26:25;;;;;;;12.75;5.90;;;;;;;20.43;32.30;97976.88;4438180;32;20124;-85
2022/04/06 11:29:00;;;;;;;11.70;5.20;;;;;;;20.47;32.14;97969.34;4438200;32;20445;-87
2022/04/06 11:31:25;;;;;;;12.73;5.47;;;;;;;20.53;32.90;97974.91;4422681;32;20228;-84
2022/04/06 11:33:50;;;;;;;12.20;5.03;;;;;;;20.55;31.76;97970.22;4437821;32;20122;-86
2022/04/06 11:36:18;;;;;;;13.20;5.95;;;;;;;20.58;31.71;97969.84;4437957;32;20146;-81
2022/04/06 11:38:49;;;;;;;13.80;5.95;;;;;;;20.66;32.50;97962.88;4429620;32;20093;-82